• Join FlightAware (Why Join?)
  • Login
  • US Flag 
12:04AM EDT


 

Airport Tracker/Info


-or-


 

Live Flight TrackerFlight Track Log ✈ LXJ437 ✈ 20-Jun-2013 ✈ KSDM - KSNA

Flight Track Log - Related Links

Times and Time Zones

All times are in EDT time to prevent confusion due to time zone crossing. See the LXJ437 flight status page for this flight to view local times or setup timezone preferences in your user account.

Time Position Orientation Groundspeed Altitude Reporting Facility
EDT Latitude Longitude Course Direction KTS MPH feet Rate Location/Type
12:33PM 32.5833 -117.0000 270° West 145 167 1,600  Level Southern California TRACON
12:34PM 32.5833 -117.0667 270° West 211 243 4,600 3,240 Climbing Southern California TRACON
12:35PM 32.6000 -117.1333 287° West 219 252 8,100 2,640 Climbing Southern California TRACON
12:36PM 32.6167 -117.2000 287° West 234 269 9,900 1,200 Climbing Southern California TRACON
12:37PM 32.6250 -117.2292 289° West 239 275 10,000 60 Climbing Los Angeles Center
12:38PM 32.6719 -117.3144 303° West 256 295 10,000  Level Los Angeles Center
12:39PM 32.7092 -117.3811 304° West 246 283 10,000  Level Los Angeles Center
12:40PM 32.7597 -117.4311 320° Northwest 240 276 10,000  Level Los Angeles Center
12:41PM 32.8428 -117.5003 325° Northwest 320 368 10,100  Climbing Los Angeles Center
12:42PM 32.9278 -117.5731 324° Northwest 366 421 10,100  Level Los Angeles Center
12:43PM 33.0136 -117.6492 323° Northwest 381 438 10,100  Level Los Angeles Center
12:44PM 33.1000 -117.7231 324° Northwest 382 440 10,100  Level Los Angeles Center
12:45PM 33.1844 -117.7981 323° Northwest 380 437 10,100 -540 Level Los Angeles Center
12:46PM 33.2503 -117.8533 325° Northwest 305 351 9,000 -1,680 Descending Los Angeles Center
12:47PM 33.3236 -117.9147 325° Northwest 273 314 6,700 -1,440 Descending Los Angeles Center
12:48PM 33.3831 -117.9650 325° Northwest 265 305 6,100 -360 Descending Los Angeles Center
12:49PM 33.4442 -118.0183 324° Northwest 269 310 6,000  Descending Los Angeles Center
12:50PM 33.4933 -118.0606 324° Northwest 240 276 6,100 -240 Climbing Los Angeles Center
12:51PM 33.5439 -118.0772 345° North 217 250 5,600 -900 Descending Los Angeles Center
12:52PM 33.6053 -118.0428 25° Northeast 208 239 4,300 -780 Descending Los Angeles Center
12:53PM 33.6489 -118.0036 37° Northeast 200 230 4,000 -120 Descending Los Angeles Center
12:54PM 33.7000 -117.9667 31° Northeast 204 235 4,100  Climbing Southern California TRACON
12:55PM 33.7333 -117.9167 51° Northeast 189 217 4,100 -540 Level Southern California TRACON
12:56PM 33.7667 -117.8833 40° Northeast 181 208 3,100 -1,200 Descending Southern California TRACON
12:57PM 33.7667 -117.8333 90° East 172 198 1,700 -1,020 Descending Southern California TRACON
12:58PM 33.7333 -117.8333 180° South 127 146 1,100 -600 Descending Southern California TRACON
12:59PM 33.7000 -117.8500 203° Southwest 126 145 500 -600 Descending Southern California TRACON